Главная страница
METAR-TAF:

METAR-TAF

Аэропорты :

Порт-оф-Спейн, Тринидад, Тринидад и Тобаго

широта: 10-37N, долгота: 061-21W, высота над уровнем моря: 12 м

Текущие метеонаблюдения

Эта сводка был подготовлена 21 минут назад, в 17:00 UTC
Ветер 12 Узел от восточно-юго-восточный
Температура 28°C
Влажность 79%
Давление 1014 hPa
Видимость 10 км и более
Рассеянная облачность на высоте 1800 фута
ливни в окрестностях, ливни в окрестностях

METAR: TTPP 191700Z 11012KT 9999 VCSH BKN018 28/24 Q1014 NOSIG VCSH ALQDS

Время: 13:21 (17:21 UTC)

Прогноз

Эта сводка был подготовлена 7 часа и 21 минут назад, в 10:00 UTC
Прогноз действительный с 19-го 12 UTC до 20-го 12 UTC
Ветер 15 Узел от восточно-юго-восточный
Видимость 10 км и более
Отдельные облака на высоте 2500 фута
изменения
С 19-го 23 UTC до 20-го 01 UTC
Ветер 5 Узел от восточный
небольшая облачность на высоте 1800 фута

TAF: TTPP 191000Z 1912/2012 11015KT 9999 SCT025 BECMG 1923/2001 09005KT FEW018

Метеонаблюдения и прогнозы для более 4000 аэропортов (сводки METAR и TAF).

Имеющиеся станции представлены на карте желтыми и красными точками.

Чтобы увидеть название станции, наведите на нее мышь.

Затем щелкните, чтобы увидеть метеонаблюдения и метеопрогнозы.

Управление картой: чтобы увеличить масштаб, щелкните зеленые кнопки с черным крестиком; чтобы уменьшить масштаб, щелкните зеленую кнопку с тире; для просмотра соседних карт щелкайте зеленые стрелки.


METAR-TAF: